createdAt,value
2023-09-17T00:00:46.731Z,0.00
2023-09-17T00:01:46.793Z,0.00
2023-09-17T00:02:46.721Z,0.00
2023-09-17T00:03:46.880Z,0.00
2023-09-17T00:04:46.691Z,0.00
2023-09-17T00:05:46.786Z,0.00
2023-09-17T00:06:46.653Z,0.00
2023-09-17T00:07:46.722Z,0.00
2023-09-17T00:08:46.604Z,0.00
2023-09-17T00:09:46.645Z,0.00
2023-09-17T00:10:46.680Z,0.00
2023-09-17T00:11:46.639Z,0.00
2023-09-17T00:12:46.580Z,0.00
2023-09-17T00:13:46.593Z,0.00
2023-09-17T00:14:46.608Z,0.00
2023-09-17T00:15:46.567Z,0.00
2023-09-17T00:16:46.770Z,0.00
2023-09-17T00:17:46.561Z,0.00
2023-09-17T00:18:46.579Z,0.00
2023-09-17T00:19:46.620Z,0.00
2023-09-17T00:20:46.485Z,0.00
2023-09-17T00:21:46.476Z,0.00
2023-09-17T00:22:46.501Z,0.00
2023-09-17T00:23:46.506Z,0.00
2023-09-17T00:24:46.448Z,0.00
2023-09-17T00:25:46.458Z,0.00
2023-09-17T00:26:46.400Z,0.00
2023-09-17T00:27:46.412Z,0.00
2023-09-17T00:28:46.459Z,0.00
2023-09-17T00:29:46.384Z,0.00
2023-09-17T00:30:46.436Z,0.00
2023-09-17T00:31:46.442Z,0.00
2023-09-17T00:32:46.368Z,0.00
2023-09-17T00:33:46.342Z,0.00
2023-09-17T00:34:46.357Z,0.00
2023-09-17T00:35:46.357Z,0.00
2023-09-17T00:36:46.406Z,0.00
2023-09-17T00:37:46.385Z,0.00
2023-09-17T00:38:46.280Z,0.00
2023-09-17T00:39:46.284Z,0.00
2023-09-17T00:40:46.302Z,0.00
2023-09-17T00:41:46.341Z,0.00
2023-09-17T00:42:46.242Z,0.00
2023-09-17T00:43:46.338Z,0.00
2023-09-17T00:44:46.244Z,0.00
2023-09-17T00:45:46.239Z,0.00
2023-09-17T00:46:46.310Z,0.00
2023-09-17T00:47:46.318Z,0.00
2023-09-17T00:48:46.239Z,0.00
2023-09-17T00:49:46.253Z,0.00
2023-09-17T00:50:46.154Z,0.00
2023-09-17T00:51:46.153Z,0.00
2023-09-17T00:52:46.223Z,0.00
2023-09-17T00:53:46.202Z,0.00
2023-09-17T00:54:46.130Z,0.00
2023-09-17T00:55:46.161Z,0.00
2023-09-17T00:56:46.162Z,0.00
2023-09-17T00:57:46.099Z,0.00
2023-09-17T00:58:46.099Z,0.00
2023-09-17T00:59:46.108Z,0.00
2023-09-17T01:00:46.055Z,0.00
2023-09-17T01:01:46.149Z,0.00
2023-09-17T01:02:46.093Z,0.00
2023-09-17T01:03:46.133Z,0.00
2023-09-17T01:04:46.030Z,0.00
2023-09-17T01:05:46.051Z,0.00
2023-09-17T01:06:46.012Z,0.00
2023-09-17T01:07:46.070Z,0.00
2023-09-17T01:08:45.986Z,0.00
2023-09-17T01:09:46.013Z,0.00
2023-09-17T01:10:45.992Z,0.00
2023-09-17T01:11:45.929Z,0.00
2023-09-17T01:12:45.955Z,0.00
2023-09-17T01:13:45.948Z,0.00
2023-09-17T01:14:45.904Z,0.00
2023-09-17T01:15:46.002Z,0.00
2023-09-17T01:16:45.953Z,0.00
2023-09-17T01:17:45.900Z,0.00
2023-09-17T01:18:45.845Z,0.00
2023-09-17T01:19:45.907Z,0.00
2023-09-17T01:20:45.866Z,0.00
2023-09-17T01:21:45.844Z,0.00
2023-09-17T01:22:45.955Z,0.00
2023-09-17T01:23:45.815Z,0.00
2023-09-17T01:24:45.813Z,0.00
2023-09-17T01:25:45.837Z,0.00
2023-09-17T01:26:45.794Z,0.00
2023-09-17T01:27:45.784Z,0.00
2023-09-17T01:28:45.824Z,0.00
2023-09-17T01:29:45.755Z,0.00
2023-09-17T01:30:45.777Z,0.00
2023-09-17T01:31:45.757Z,0.00
2023-09-17T01:32:45.722Z,0.00
2023-09-17T01:33:45.804Z,0.00
2023-09-17T01:34:45.727Z,0.00
2023-09-17T01:35:45.708Z,0.00
2023-09-17T01:36:45.654Z,0.00
2023-09-17T01:37:45.711Z,0.00
2023-09-17T01:38:45.648Z,0.00
2023-09-17T01:39:45.637Z,0.00
2023-09-17T01:40:45.642Z,0.00
2023-09-17T01:41:45.634Z,0.00
2023-09-17T01:42:45.589Z,0.00
2023-09-17T01:43:45.898Z,0.00
2023-09-17T01:44:45.641Z,0.00
2023-09-17T01:45:45.581Z,0.00
2023-09-17T01:46:45.622Z,0.00
2023-09-17T01:47:45.600Z,0.00
2023-09-17T01:48:45.570Z,0.00
2023-09-17T01:49:45.639Z,0.00
2023-09-17T01:50:45.532Z,0.00
2023-09-17T01:51:45.562Z,0.00
2023-09-17T01:52:45.516Z,0.00
2023-09-17T01:53:45.500Z,0.00
2023-09-17T01:54:45.485Z,0.00
2023-09-17T01:55:45.534Z,0.00
2023-09-17T01:56:45.460Z,0.00
2023-09-17T01:57:45.452Z,0.00
2023-09-17T01:58:45.460Z,0.00
2023-09-17T01:59:45.413Z,0.00
2023-09-17T02:00:45.396Z,0.00
2023-09-17T02:01:45.485Z,0.00
2023-09-17T02:02:45.477Z,0.00
2023-09-17T02:03:45.500Z,0.00
2023-09-17T02:04:45.366Z,0.00
2023-09-17T02:05:45.372Z,0.00
2023-09-17T02:06:45.331Z,0.00
2023-09-17T02:07:45.511Z,0.00
2023-09-17T02:08:45.482Z,0.00
2023-09-17T02:09:45.327Z,0.00
2023-09-17T02:10:45.302Z,0.00
2023-09-17T02:11:45.285Z,0.00
2023-09-17T02:12:45.266Z,0.00
2023-09-17T02:13:45.299Z,0.00
2023-09-17T02:14:45.271Z,0.00
2023-09-17T02:15:45.281Z,0.00
2023-09-17T02:16:45.227Z,0.00
2023-09-17T02:17:45.272Z,0.00
2023-09-17T02:18:45.274Z,0.00
2023-09-17T02:19:45.603Z,0.00
2023-09-17T02:20:45.150Z,0.00
2023-09-17T02:21:45.209Z,0.00
2023-09-17T02:22:45.246Z,0.00
2023-09-17T02:23:45.173Z,0.00
2023-09-17T02:24:45.117Z,0.00
2023-09-17T02:25:45.207Z,0.00
2023-09-17T02:26:45.141Z,0.00
2023-09-17T02:27:45.092Z,0.00
2023-09-17T02:28:45.090Z,0.00
2023-09-17T02:29:45.104Z,0.00
2023-09-17T02:30:45.083Z,0.00
2023-09-17T02:31:45.112Z,0.00
2023-09-17T02:32:45.135Z,0.00
2023-09-17T02:33:45.025Z,0.00
2023-09-17T02:34:45.049Z,0.00
2023-09-17T02:35:45.005Z,0.00
2023-09-17T02:36:45.049Z,0.00
2023-09-17T02:37:45.073Z,0.00
2023-09-17T02:38:44.989Z,0.00
2023-09-17T02:39:45.047Z,0.00
2023-09-17T02:40:44.993Z,0.00
2023-09-17T02:41:44.989Z,0.00
2023-09-17T02:42:44.930Z,0.00
2023-09-17T02:43:44.973Z,0.00
2023-09-17T02:44:44.921Z,0.00
2023-09-17T02:45:44.898Z,0.00
2023-09-17T02:46:44.903Z,0.00
2023-09-17T02:47:44.933Z,0.00
2023-09-17T02:48:44.871Z,0.00
2023-09-17T02:49:44.901Z,0.00
2023-09-17T02:50:44.838Z,0.00
2023-09-17T02:51:44.838Z,0.00
2023-09-17T02:52:44.911Z,0.00
2023-09-17T02:53:44.816Z,0.00
2023-09-17T02:54:44.809Z,0.00
2023-09-17T02:55:44.891Z,0.00
2023-09-17T02:56:44.796Z,0.00
2023-09-17T02:57:44.785Z,0.00
2023-09-17T02:58:44.795Z,0.00
2023-09-17T02:59:44.754Z,0.00
2023-09-17T03:00:44.805Z,0.00
2023-09-17T03:01:44.767Z,0.00
2023-09-17T03:02:44.818Z,0.00
2023-09-17T03:03:44.697Z,0.00
2023-09-17T03:04:44.790Z,0.00
2023-09-17T03:05:44.689Z,0.00
2023-09-17T03:06:44.655Z,0.00
2023-09-17T03:07:44.711Z,0.00
2023-09-17T03:08:44.663Z,0.00
2023-09-17T03:09:44.655Z,0.00
2023-09-17T03:10:44.882Z,0.00
2023-09-17T03:11:44.632Z,0.00
2023-09-17T03:12:44.602Z,0.00
2023-09-17T03:13:44.656Z,0.00
2023-09-17T03:14:44.593Z,0.00
2023-09-17T03:15:44.614Z,0.00
2023-09-17T03:16:44.743Z,0.00
2023-09-17T03:17:44.619Z,0.00
2023-09-17T03:18:44.541Z,0.00
2023-09-17T03:19:44.586Z,0.00
2023-09-17T03:20:44.520Z,0.00
2023-09-17T03:21:44.522Z,0.00
2023-09-17T03:22:44.537Z,0.00
2023-09-17T03:23:44.538Z,0.00
2023-09-17T03:24:51.038Z,0.00
2023-09-17T03:25:45.506Z,0.00
2023-09-17T03:26:44.462Z,0.00
2023-09-17T03:27:44.527Z,0.00
2023-09-17T03:28:44.551Z,0.00
2023-09-17T03:29:44.423Z,0.00
2023-09-17T03:30:44.447Z,0.00
2023-09-17T03:31:44.469Z,0.00
2023-09-17T03:32:57.582Z,0.00
2023-09-17T03:33:45.508Z,0.00
2023-09-17T03:34:44.401Z,0.00
2023-09-17T03:35:44.383Z,0.00
2023-09-17T03:36:44.340Z,0.00
2023-09-17T03:37:44.392Z,0.00
2023-09-17T03:38:44.318Z,0.00
2023-09-17T03:39:44.311Z,0.00
2023-09-17T03:40:44.319Z,0.00
2023-09-17T03:41:44.318Z,0.00
2023-09-17T03:42:44.322Z,0.00
2023-09-17T03:43:44.362Z,0.00
2023-09-17T03:44:44.278Z,0.00
2023-09-17T03:45:44.252Z,0.00
2023-09-17T03:46:44.355Z,0.00
2023-09-17T03:47:44.273Z,0.00
2023-09-17T03:48:44.236Z,0.00
2023-09-17T03:49:44.274Z,0.00
2023-09-17T03:50:44.190Z,0.00
2023-09-17T03:51:44.184Z,0.00
2023-09-17T03:52:44.206Z,0.00
2023-09-17T03:53:44.144Z,0.00
2023-09-17T03:54:44.165Z,0.00
2023-09-17T03:55:44.179Z,0.00
2023-09-17T03:56:44.150Z,0.00
2023-09-17T03:57:44.149Z,0.00
2023-09-17T03:58:46.047Z,0.00
2023-09-17T03:59:44.091Z,0.00
2023-09-17T04:00:44.092Z,0.00
2023-09-17T04:01:44.121Z,0.00
2023-09-17T04:02:44.140Z,0.00
2023-09-17T04:03:44.098Z,0.00
2023-09-17T04:04:44.072Z,0.00
2023-09-17T04:05:44.031Z,0.00
2023-09-17T04:06:44.009Z,0.00
2023-09-17T04:07:44.120Z,0.00
2023-09-17T04:08:44.000Z,0.00
2023-09-17T04:09:43.982Z,0.00
2023-09-17T04:10:44.025Z,0.00
2023-09-17T04:11:43.961Z,0.00
2023-09-17T04:12:44.140Z,0.00
2023-09-17T04:13:44.061Z,0.00
2023-09-17T04:14:43.937Z,0.00
2023-09-17T04:15:43.894Z,0.00
2023-09-17T04:16:44.003Z,0.00
2023-09-17T04:17:43.927Z,0.00
2023-09-17T04:18:43.877Z,0.00
2023-09-17T04:19:43.903Z,0.00
2023-09-17T04:20:43.861Z,0.00
2023-09-17T04:21:43.839Z,0.00
2023-09-17T04:22:44.210Z,0.00
2023-09-17T04:23:43.791Z,0.00
2023-09-17T04:24:43.813Z,0.00
2023-09-17T04:25:43.869Z,0.00
2023-09-17T04:26:43.819Z,0.00
2023-09-17T04:27:43.784Z,0.00
2023-09-17T04:28:43.821Z,0.00
2023-09-17T04:29:43.798Z,0.00
2023-09-17T04:30:43.782Z,0.00
2023-09-17T04:31:43.799Z,0.00
2023-09-17T04:32:43.894Z,0.00
2023-09-17T04:33:43.752Z,0.00
2023-09-17T04:34:43.905Z,0.00
2023-09-17T04:35:43.697Z,0.00
2023-09-17T04:36:43.694Z,0.00
2023-09-17T04:37:43.706Z,0.00
2023-09-17T04:38:43.645Z,0.00
2023-09-17T04:39:43.673Z,0.00
2023-09-17T04:40:43.702Z,0.00
2023-09-17T04:41:43.632Z,0.00
2023-09-17T04:42:43.651Z,0.00
2023-09-17T04:43:43.697Z,0.00
2023-09-17T04:44:43.614Z,0.00
2023-09-17T04:45:43.597Z,0.00
2023-09-17T04:46:43.626Z,0.00
2023-09-17T04:47:43.576Z,0.00
2023-09-17T04:48:43.553Z,0.00
2023-09-17T04:49:43.564Z,0.00
2023-09-17T04:50:46.284Z,0.00
2023-09-17T04:51:43.504Z,0.00
2023-09-17T04:52:43.577Z,0.00
2023-09-17T04:53:43.522Z,0.00
2023-09-17T04:54:43.504Z,0.00
2023-09-17T04:55:43.576Z,0.00
2023-09-17T04:56:43.474Z,0.00
2023-09-17T04:57:43.459Z,0.00
2023-09-17T04:58:43.497Z,5.62
2023-09-17T04:59:43.443Z,5.62
2023-09-17T05:00:43.423Z,5.62
2023-09-17T05:01:43.447Z,5.62
2023-09-17T05:02:43.446Z,5.62
2023-09-17T05:03:43.506Z,11.25
2023-09-17T05:04:43.390Z,11.25
2023-09-17T05:05:43.371Z,11.25
2023-09-17T05:06:43.458Z,11.25
2023-09-17T05:07:43.384Z,16.88
2023-09-17T05:08:43.338Z,16.88
2023-09-17T05:09:43.333Z,16.88
2023-09-17T05:10:43.344Z,16.88
2023-09-17T05:11:43.289Z,22.50
2023-09-17T05:12:43.298Z,22.50
2023-09-17T05:13:43.291Z,22.50
2023-09-17T05:14:44.033Z,28.12
2023-09-17T05:15:43.279Z,28.12
2023-09-17T05:16:43.404Z,28.12
2023-09-17T05:17:43.257Z,33.75
2023-09-17T05:18:43.284Z,33.75
2023-09-17T05:19:43.209Z,33.75
2023-09-17T05:20:43.208Z,39.38
2023-09-17T05:21:43.174Z,39.38
2023-09-17T05:22:43.199Z,45.00
2023-09-17T05:23:43.183Z,45.00
2023-09-17T05:24:43.148Z,45.00
2023-09-17T05:25:43.182Z,50.62
2023-09-17T05:26:43.160Z,50.62
2023-09-17T05:27:43.079Z,56.25
2023-09-17T05:28:43.242Z,56.25
2023-09-17T05:29:43.115Z,61.88
2023-09-17T05:30:43.076Z,61.88
2023-09-17T05:31:43.168Z,61.88
2023-09-17T05:32:43.112Z,67.50
2023-09-17T05:33:43.053Z,67.50
2023-09-17T05:34:43.076Z,73.12
2023-09-17T05:35:43.038Z,73.12
2023-09-17T05:36:43.050Z,78.75
2023-09-17T05:37:43.036Z,78.75
2023-09-17T05:38:43.021Z,84.38
2023-09-17T05:39:51.749Z,84.38
2023-09-17T05:40:44.991Z,90.00
2023-09-17T05:41:42.934Z,90.00
2023-09-17T05:42:42.924Z,95.62
2023-09-17T05:43:42.950Z,95.62
2023-09-17T05:44:42.915Z,101.25
2023-09-17T05:45:42.975Z,101.25
2023-09-17T05:46:42.915Z,106.88
2023-09-17T05:47:42.901Z,112.50
2023-09-17T05:48:42.878Z,123.75
2023-09-17T05:49:42.888Z,129.38
2023-09-17T05:50:42.888Z,135.00
2023-09-17T05:51:42.826Z,135.00
2023-09-17T05:52:42.868Z,140.62
2023-09-17T05:53:42.809Z,140.62
2023-09-17T05:54:42.803Z,146.25
2023-09-17T05:55:42.814Z,146.25
2023-09-17T05:56:42.796Z,135.00
2023-09-17T05:57:42.756Z,135.00
2023-09-17T05:58:42.798Z,140.62
2023-09-17T05:59:42.745Z,140.62
2023-09-17T06:00:42.748Z,140.62
2023-09-17T06:01:42.827Z,140.62
2023-09-17T06:02:42.838Z,140.62
2023-09-17T06:03:42.750Z,140.62
2023-09-17T06:04:42.722Z,146.25
2023-09-17T06:05:42.668Z,146.25
2023-09-17T06:06:42.683Z,146.25
2023-09-17T06:07:42.729Z,146.25
2023-09-17T06:08:42.654Z,157.50
2023-09-17T06:09:42.651Z,163.12
2023-09-17T06:10:42.660Z,163.12
2023-09-17T06:11:42.619Z,163.12
2023-09-17T06:12:42.623Z,163.12
2023-09-17T06:13:42.616Z,157.50
2023-09-17T06:14:42.587Z,146.25
2023-09-17T06:15:42.643Z,135.00
2023-09-17T06:16:54.681Z,129.38
2023-09-17T06:17:43.557Z,129.38
2023-09-17T06:18:42.554Z,135.00
2023-09-17T06:19:42.559Z,135.00
2023-09-17T06:20:42.516Z,129.38
2023-09-17T06:21:42.512Z,118.12
2023-09-17T06:22:42.521Z,123.75
2023-09-17T06:23:42.487Z,123.75
2023-09-17T06:24:42.484Z,118.12
2023-09-17T06:25:42.450Z,101.25
2023-09-17T06:26:42.445Z,95.62
2023-09-17T06:27:42.447Z,90.00
2023-09-17T06:28:42.469Z,84.38
2023-09-17T06:29:42.396Z,78.75
2023-09-17T06:30:42.416Z,84.38
2023-09-17T06:31:42.402Z,90.00
2023-09-17T06:32:42.412Z,90.00
2023-09-17T06:33:42.361Z,73.12
2023-09-17T06:34:42.372Z,73.12
2023-09-17T06:35:42.360Z,73.12
2023-09-17T06:36:42.332Z,78.75
2023-09-17T06:37:42.356Z,84.38
2023-09-17T06:38:42.318Z,84.38
2023-09-17T06:39:42.293Z,95.62
2023-09-17T06:40:42.332Z,101.25
2023-09-17T06:41:43.429Z,112.50
2023-09-17T06:42:42.260Z,118.12
2023-09-17T06:43:42.292Z,123.75
2023-09-17T06:44:42.253Z,123.75
2023-09-17T06:45:42.224Z,123.75
2023-09-17T06:46:42.453Z,123.75
2023-09-17T06:47:42.378Z,118.12
2023-09-17T06:48:43.192Z,118.12
2023-09-17T06:49:42.198Z,118.12
2023-09-17T06:50:42.181Z,118.12
2023-09-17T06:51:42.168Z,112.50
2023-09-17T06:52:42.191Z,106.88
2023-09-17T06:53:42.163Z,101.25
2023-09-17T06:54:42.147Z,95.62
2023-09-17T06:55:42.160Z,90.00
2023-09-17T06:56:42.128Z,90.00
2023-09-17T06:57:42.093Z,84.38
2023-09-17T06:58:42.112Z,84.38
2023-09-17T06:59:42.097Z,84.38
2023-09-17T07:00:42.095Z,84.38
2023-09-17T07:01:42.076Z,84.38
2023-09-17T07:02:42.140Z,90.00
2023-09-17T07:03:42.023Z,90.00
2023-09-17T07:04:42.069Z,101.25
2023-09-17T07:05:42.012Z,106.88
2023-09-17T07:06:42.026Z,118.12
2023-09-17T07:07:42.009Z,123.75
2023-09-17T07:08:41.984Z,135.00
2023-09-17T07:09:41.954Z,146.25
2023-09-17T07:10:41.977Z,163.12
2023-09-17T07:11:41.952Z,168.75
2023-09-17T07:12:41.942Z,185.62
2023-09-17T07:13:41.932Z,196.88
2023-09-17T07:14:41.929Z,202.50
2023-09-17T07:15:41.894Z,208.12
2023-09-17T07:16:41.947Z,213.75
2023-09-17T07:17:41.999Z,213.75
2023-09-17T07:18:41.950Z,208.12
2023-09-17T07:19:41.901Z,208.12
2023-09-17T07:20:41.854Z,202.50
2023-09-17T07:21:41.824Z,191.25
2023-09-17T07:22:41.852Z,185.62
2023-09-17T07:23:41.814Z,180.00
2023-09-17T07:24:41.812Z,174.38
2023-09-17T07:25:41.821Z,174.38
2023-09-17T07:26:41.767Z,174.38
2023-09-17T07:27:41.776Z,174.38
2023-09-17T07:28:41.766Z,174.38
2023-09-17T07:29:41.754Z,174.38
2023-09-17T07:30:41.781Z,174.38
2023-09-17T07:31:41.745Z,180.00
2023-09-17T07:32:41.748Z,180.00
2023-09-17T07:33:41.702Z,180.00
2023-09-17T07:34:41.734Z,174.38
2023-09-17T07:35:41.675Z,168.75
2023-09-17T07:36:41.686Z,163.12
2023-09-17T07:37:50.615Z,163.12
2023-09-17T07:38:42.659Z,163.12
2023-09-17T07:39:41.622Z,168.75
2023-09-17T07:40:41.649Z,185.62
2023-09-17T07:41:41.619Z,202.50
2023-09-17T07:42:41.613Z,219.38
2023-09-17T07:43:41.657Z,236.25
2023-09-17T07:44:41.563Z,253.12
2023-09-17T07:45:41.595Z,258.75
2023-09-17T07:46:42.651Z,264.38
2023-09-17T07:47:41.615Z,270.00
2023-09-17T07:48:41.551Z,270.00
2023-09-17T07:49:41.633Z,264.38
2023-09-17T07:50:41.537Z,264.38
2023-09-17T07:51:41.508Z,264.38
2023-09-17T07:52:41.547Z,258.75
2023-09-17T07:53:41.480Z,253.12
2023-09-17T07:54:41.469Z,247.50
2023-09-17T07:55:41.498Z,253.12
2023-09-17T07:56:41.461Z,253.12
2023-09-17T07:57:41.458Z,253.12
2023-09-17T07:58:41.516Z,253.12
2023-09-17T07:59:41.432Z,253.12
2023-09-17T08:00:41.414Z,253.12
2023-09-17T08:01:41.513Z,253.12
2023-09-17T08:02:41.816Z,253.12
2023-09-17T08:03:41.456Z,253.12
2023-09-17T08:04:41.424Z,258.75
2023-09-17T08:05:41.373Z,258.75
2023-09-17T08:06:41.336Z,258.75
2023-09-17T08:07:41.457Z,258.75
2023-09-17T08:08:41.331Z,253.12
2023-09-17T08:09:41.302Z,247.50
2023-09-17T08:10:41.374Z,241.88
2023-09-17T08:11:41.305Z,241.88
2023-09-17T08:12:41.284Z,241.88
2023-09-17T08:13:41.370Z,236.25
2023-09-17T08:14:41.234Z,230.62
2023-09-17T08:15:41.258Z,230.62
2023-09-17T08:16:41.371Z,225.00
2023-09-17T08:17:41.275Z,219.38
2023-09-17T08:18:41.231Z,213.75
2023-09-17T08:19:41.238Z,202.50
2023-09-17T08:20:41.231Z,196.88
2023-09-17T08:21:41.185Z,191.25
2023-09-17T08:22:41.235Z,185.62
2023-09-17T08:23:41.184Z,180.00
2023-09-17T08:24:41.153Z,174.38
2023-09-17T08:25:41.162Z,168.75
2023-09-17T08:26:41.142Z,168.75
2023-09-17T08:27:41.132Z,168.75
2023-09-17T08:28:41.109Z,163.12
2023-09-17T08:29:41.101Z,163.12
2023-09-17T08:30:41.095Z,163.12
2023-09-17T08:31:41.094Z,163.12
2023-09-17T08:32:41.193Z,163.12
2023-09-17T08:33:41.042Z,163.12
2023-09-17T08:34:41.120Z,163.12
2023-09-17T08:35:41.141Z,168.75
2023-09-17T08:36:41.010Z,168.75
2023-09-17T08:37:41.021Z,168.75
2023-09-17T08:38:41.026Z,174.38
2023-09-17T08:39:40.997Z,174.38
2023-09-17T08:40:41.026Z,174.38
2023-09-17T08:41:40.954Z,174.38
2023-09-17T08:42:40.959Z,168.75
2023-09-17T08:43:40.987Z,157.50
2023-09-17T08:44:40.920Z,146.25
2023-09-17T08:45:40.914Z,140.62
2023-09-17T08:46:41.038Z,140.62
2023-09-17T08:47:40.900Z,140.62
2023-09-17T08:48:40.904Z,140.62
2023-09-17T08:49:40.939Z,140.62
2023-09-17T08:50:40.869Z,146.25
2023-09-17T08:51:40.912Z,146.25
2023-09-17T08:52:40.906Z,146.25
2023-09-17T08:53:40.843Z,146.25
2023-09-17T08:54:40.844Z,146.25
2023-09-17T08:55:40.888Z,146.25
2023-09-17T08:56:40.787Z,151.88
2023-09-17T08:57:40.792Z,157.50
2023-09-17T08:58:40.829Z,163.12
2023-09-17T08:59:40.779Z,163.12
2023-09-17T09:00:40.787Z,168.75
2023-09-17T09:01:40.820Z,180.00
2023-09-17T09:02:40.880Z,185.62
2023-09-17T09:03:40.775Z,191.25
2023-09-17T09:04:40.734Z,208.12
2023-09-17T09:05:40.704Z,236.25
2023-09-17T09:06:40.690Z,264.38
2023-09-17T09:07:40.692Z,298.12
2023-09-17T09:08:40.668Z,337.50
2023-09-17T09:09:40.662Z,376.88
2023-09-17T09:10:40.666Z,405.00
2023-09-17T09:11:40.638Z,433.12
2023-09-17T09:12:40.620Z,450.00
2023-09-17T09:13:40.688Z,461.25
2023-09-17T09:14:40.612Z,483.75
2023-09-17T09:15:40.597Z,450.00
2023-09-17T09:16:40.643Z,438.75
2023-09-17T09:17:40.677Z,427.50
2023-09-17T09:18:40.553Z,410.62
2023-09-17T09:19:40.607Z,399.38
2023-09-17T09:20:40.520Z,405.00
2023-09-17T09:21:40.536Z,416.25
2023-09-17T09:22:40.656Z,433.12
2023-09-17T09:23:40.551Z,444.38
2023-09-17T09:24:40.503Z,461.25
2023-09-17T09:25:40.568Z,483.75
2023-09-17T09:26:40.460Z,495.00
2023-09-17T09:27:40.468Z,500.62
2023-09-17T09:28:40.443Z,489.38
2023-09-17T09:29:40.454Z,495.00
2023-09-17T09:30:40.412Z,506.25
2023-09-17T09:31:40.412Z,523.12
2023-09-17T09:32:40.585Z,545.62
2023-09-17T09:33:40.419Z,562.50
2023-09-17T09:34:40.414Z,579.38
2023-09-17T09:35:40.400Z,607.50
2023-09-17T09:36:40.408Z,630.00
2023-09-17T09:37:40.377Z,646.88
2023-09-17T09:38:40.323Z,658.12
2023-09-17T09:39:40.354Z,675.00
2023-09-17T09:40:40.337Z,686.25
2023-09-17T09:41:40.371Z,697.50
2023-09-17T09:42:40.340Z,697.50
2023-09-17T09:43:40.321Z,691.88
2023-09-17T09:44:40.262Z,680.62
2023-09-17T09:45:40.268Z,714.38
2023-09-17T09:46:40.273Z,652.50
2023-09-17T09:47:40.269Z,652.50
2023-09-17T09:48:40.205Z,658.12
2023-09-17T09:49:40.259Z,675.00
2023-09-17T09:50:40.223Z,748.12
2023-09-17T09:51:40.205Z,731.25
2023-09-17T09:52:40.214Z,759.38
2023-09-17T09:53:40.194Z,770.62
2023-09-17T09:54:40.161Z,759.38
2023-09-17T09:55:40.155Z,759.38
2023-09-17T09:56:40.157Z,703.12
2023-09-17T09:57:41.227Z,759.38
2023-09-17T09:58:40.126Z,765.00
2023-09-17T09:59:40.101Z,759.38
2023-09-17T10:00:40.068Z,748.12
2023-09-17T10:01:40.209Z,776.25
2023-09-17T10:02:40.114Z,770.62
2023-09-17T10:03:40.086Z,748.12
2023-09-17T10:04:40.185Z,748.12
2023-09-17T10:05:40.076Z,736.88
2023-09-17T10:06:40.026Z,714.38
2023-09-17T10:07:40.080Z,714.38
2023-09-17T10:08:40.008Z,753.75
2023-09-17T10:09:40.014Z,810.00
2023-09-17T10:10:39.999Z,804.38
2023-09-17T10:11:39.991Z,781.88
2023-09-17T10:12:39.962Z,753.75
2023-09-17T10:13:40.075Z,793.12
2023-09-17T10:14:39.947Z,776.25
2023-09-17T10:15:40.018Z,765.00
2023-09-17T10:16:39.976Z,748.12
2023-09-17T10:17:39.955Z,697.50
2023-09-17T10:18:39.946Z,725.62
2023-09-17T10:19:39.915Z,703.12
2023-09-17T10:20:39.865Z,646.88
2023-09-17T10:21:39.890Z,697.50
2023-09-17T10:22:39.856Z,641.25
2023-09-17T10:23:39.859Z,697.50
2023-09-17T10:24:40.055Z,703.12
2023-09-17T10:25:39.903Z,703.12
2023-09-17T10:26:39.839Z,686.25
2023-09-17T10:27:39.829Z,691.88
2023-09-17T10:28:39.815Z,736.88
2023-09-17T10:29:39.996Z,781.88
2023-09-17T10:30:39.791Z,826.88
2023-09-17T10:31:39.881Z,832.50
2023-09-17T10:32:39.844Z,826.88
2023-09-17T10:33:39.771Z,810.00
2023-09-17T10:34:39.742Z,793.12
2023-09-17T10:35:39.756Z,781.88
2023-09-17T10:36:39.701Z,736.88
2023-09-17T10:37:39.710Z,742.50
2023-09-17T10:38:39.757Z,742.50
2023-09-17T10:39:39.701Z,742.50
2023-09-17T10:40:39.761Z,736.88
2023-09-17T10:41:39.654Z,725.62
2023-09-17T10:42:39.665Z,731.25
2023-09-17T10:43:39.662Z,736.88
2023-09-17T10:44:39.628Z,759.38
2023-09-17T10:45:39.612Z,866.25
2023-09-17T10:46:39.868Z,866.25
2023-09-17T10:47:39.647Z,838.12
2023-09-17T10:48:39.570Z,939.38
2023-09-17T10:49:39.590Z,1321.88
2023-09-17T10:50:39.545Z,1659.38
2023-09-17T10:51:39.562Z,2103.75
2023-09-17T10:52:39.559Z,2126.25
2023-09-17T10:53:39.519Z,1906.88
2023-09-17T10:54:39.510Z,2103.75
2023-09-17T10:55:39.552Z,2154.38
2023-09-17T10:56:39.484Z,2064.38
2023-09-17T10:57:39.464Z,2216.25
2023-09-17T10:58:39.494Z,2205.00
2023-09-17T10:59:39.749Z,1951.88
2023-09-17T11:00:39.512Z,2092.50
2023-09-17T11:01:39.449Z,2351.25
2023-09-17T11:02:39.515Z,2306.25
2023-09-17T11:03:39.582Z,2278.12
2023-09-17T11:04:39.410Z,2475.00
2023-09-17T11:05:39.402Z,2548.12
2023-09-17T11:06:39.370Z,2565.00
2023-09-17T11:07:39.402Z,2638.12
2023-09-17T11:08:39.346Z,2649.38
2023-09-17T11:09:39.349Z,2565.00
2023-09-17T11:10:39.360Z,2283.75
2023-09-17T11:11:39.331Z,1783.12
2023-09-17T11:12:39.310Z,1710.00
2023-09-17T11:13:39.349Z,2334.38
2023-09-17T11:14:39.294Z,2323.12
2023-09-17T11:15:39.286Z,2604.38
2023-09-17T11:16:39.337Z,2711.25
2023-09-17T11:17:39.336Z,2756.25
2023-09-17T11:18:39.245Z,2716.88
2023-09-17T11:19:39.293Z,2733.75
2023-09-17T11:20:39.216Z,2761.88
2023-09-17T11:21:39.235Z,2756.25
2023-09-17T11:22:39.236Z,2846.25
2023-09-17T11:23:39.199Z,2750.62
2023-09-17T11:24:39.218Z,2767.50
2023-09-17T11:25:39.252Z,2745.00
2023-09-17T11:26:40.318Z,2790.00
2023-09-17T11:27:39.169Z,2941.88
2023-09-17T11:28:39.178Z,2868.75
2023-09-17T11:29:39.156Z,2711.25
2023-09-17T11:30:40.152Z,2896.88
2023-09-17T11:31:39.159Z,2925.00
2023-09-17T11:32:39.114Z,2880.00
2023-09-17T11:33:39.115Z,2919.38
2023-09-17T11:34:39.123Z,3009.38
2023-09-17T11:35:39.114Z,3110.62
2023-09-17T11:36:39.060Z,3099.38
2023-09-17T11:37:39.081Z,3037.50
2023-09-17T11:38:39.056Z,2750.62
2023-09-17T11:39:39.047Z,2812.50
2023-09-17T11:40:39.091Z,2835.00
2023-09-17T11:41:39.032Z,3150.00
2023-09-17T11:42:39.002Z,3240.00
2023-09-17T11:43:39.071Z,2390.62
2023-09-17T11:44:39.000Z,1968.75
2023-09-17T11:45:39.007Z,1951.88
2023-09-17T11:46:39.040Z,2401.88
2023-09-17T11:47:38.967Z,1501.88
2023-09-17T11:48:39.019Z,1164.38
2023-09-17T11:49:39.024Z,990.00
2023-09-17T11:50:38.940Z,1192.50
2023-09-17T11:51:38.910Z,1771.88
2023-09-17T11:52:38.974Z,2126.25
2023-09-17T11:53:40.996Z,2373.75
2023-09-17T11:54:38.897Z,3065.62
2023-09-17T11:55:38.899Z,2981.25
2023-09-17T11:56:38.874Z,2941.88
2023-09-17T11:57:38.946Z,2986.88
2023-09-17T11:58:38.881Z,3206.25
2023-09-17T11:59:38.887Z,3133.12
2023-09-17T12:00:38.849Z,3065.62
2023-09-17T12:01:38.938Z,3099.38
2023-09-17T12:02:38.916Z,3031.88
2023-09-17T12:03:38.868Z,3217.50
2023-09-17T12:04:39.250Z,3211.88
2023-09-17T12:05:38.802Z,3054.38
2023-09-17T12:06:38.786Z,3071.25
2023-09-17T12:07:53.146Z,3116.25
2023-09-17T12:08:39.763Z,3166.88
2023-09-17T12:09:38.716Z,3195.00
2023-09-17T12:10:38.786Z,3195.00
2023-09-17T12:11:38.718Z,3262.50
2023-09-17T12:12:38.743Z,3240.00
2023-09-17T12:13:38.722Z,3223.12
2023-09-17T12:14:38.705Z,3290.62
2023-09-17T12:15:38.664Z,3324.38
2023-09-17T12:16:38.748Z,3256.88
2023-09-17T12:17:44.314Z,3335.62
2023-09-17T12:18:39.681Z,3285.00
2023-09-17T12:19:38.673Z,3296.25
2023-09-17T12:20:38.695Z,3358.12
2023-09-17T12:21:39.581Z,3352.50
2023-09-17T12:22:38.690Z,3363.75
2023-09-17T12:23:38.585Z,3313.12
2023-09-17T12:24:38.592Z,3375.00
2023-09-17T12:25:38.606Z,3442.50
2023-09-17T12:26:38.582Z,3431.25
2023-09-17T12:27:38.552Z,3436.88
2023-09-17T12:28:38.684Z,3318.75
2023-09-17T12:29:38.546Z,967.50
2023-09-17T12:30:38.561Z,1006.88
2023-09-17T12:31:38.563Z,871.88
2023-09-17T12:32:38.549Z,916.88
2023-09-17T12:33:38.498Z,967.50
2023-09-17T12:34:38.532Z,1080.00
2023-09-17T12:35:38.470Z,1243.12
2023-09-17T12:36:38.477Z,1625.62
2023-09-17T12:37:38.516Z,1411.88
2023-09-17T12:38:38.459Z,894.38
2023-09-17T12:39:38.431Z,821.25
2023-09-17T12:40:38.487Z,804.38
2023-09-17T12:41:41.042Z,804.38
2023-09-17T12:42:38.420Z,838.12
2023-09-17T12:43:38.454Z,883.12
2023-09-17T12:44:38.411Z,961.88
2023-09-17T12:45:38.380Z,1085.62
2023-09-17T12:46:38.430Z,3577.50